sensor_id;sensor_type;location;lat;lon;timestamp;pressure;altitude;pressure_sealevel;temperature;humidity
74334;BME280;62753;40.394;-80.022;2022-10-04T00:00:58;98028.20;;;19.09;24.31
74334;BME280;62753;40.394;-80.022;2022-10-04T00:03:21;98025.63;;;19.70;24.57
74334;BME280;62753;40.394;-80.022;2022-10-04T00:05:47;98025.62;;;19.08;24.90
74334;BME280;62753;40.394;-80.022;2022-10-04T00:08:17;98031.67;;;18.88;25.84
74334;BME280;62753;40.394;-80.022;2022-10-04T00:10:33;98027.35;;;18.62;25.23
74334;BME280;62753;40.394;-80.022;2022-10-04T00:12:59;98028.43;;;18.51;24.55
74334;BME280;62753;40.394;-80.022;2022-10-04T00:15:25;98030.43;;;19.02;24.60
74334;BME280;62753;40.394;-80.022;2022-10-04T00:17:58;98029.38;;;18.29;24.35
74334;BME280;62753;40.394;-80.022;2022-10-04T00:22:51;98028.13;;;19.17;24.25
74334;BME280;62753;40.394;-80.022;2022-10-04T00:27:30;98025.07;;;18.74;24.58
74334;BME280;62753;40.394;-80.022;2022-10-04T00:32:26;98017.47;;;19.14;25.21
74334;BME280;62753;40.394;-80.022;2022-10-04T00:34:48;98024.21;;;19.00;25.18
74334;BME280;62753;40.394;-80.022;2022-10-04T00:37:14;98017.79;;;19.35;25.17
74334;BME280;62753;40.394;-80.022;2022-10-04T00:39:41;98016.99;;;18.74;25.00
74334;BME280;62753;40.394;-80.022;2022-10-04T00:42:09;98014.33;;;19.19;24.81
74334;BME280;62753;40.394;-80.022;2022-10-04T00:44:31;98011.92;;;18.85;24.38
74334;BME280;62753;40.394;-80.022;2022-10-04T00:46:53;98016.97;;;19.51;24.62
74334;BME280;62753;40.394;-80.022;2022-10-04T00:49:20;98017.34;;;19.24;24.47
74334;BME280;62753;40.394;-80.022;2022-10-04T00:51:45;98016.72;;;18.96;24.34
74334;BME280;62753;40.394;-80.022;2022-10-04T00:54:13;98014.03;;;18.58;24.10
74334;BME280;62753;40.394;-80.022;2022-10-04T00:56:39;98012.39;;;19.32;24.24
74334;BME280;62753;40.394;-80.022;2022-10-04T00:59:12;98012.00;;;18.41;24.93
74334;BME280;62753;40.394;-80.022;2022-10-04T01:01:26;98011.21;;;18.65;24.86
74334;BME280;62753;40.394;-80.022;2022-10-04T01:03:50;98015.54;;;17.81;25.12
74334;BME280;62753;40.394;-80.022;2022-10-04T01:06:15;98011.95;;;19.11;24.53
74334;BME280;62753;40.394;-80.022;2022-10-04T01:08:45;98012.94;;;19.29;24.46
74334;BME280;62753;40.394;-80.022;2022-10-04T01:11:09;98009.89;;;19.09;24.50
74334;BME280;62753;40.394;-80.022;2022-10-04T01:13:37;98004.50;;;18.73;24.55
74334;BME280;62753;40.394;-80.022;2022-10-04T01:16:00;98001.53;;;18.83;24.55
74334;BME280;62753;40.394;-80.022;2022-10-04T01:18:29;97997.24;;;18.74;24.11
74334;BME280;62753;40.394;-80.022;2022-10-04T01:20:52;98001.51;;;18.30;25.08
74334;BME280;62753;40.394;-80.022;2022-10-04T01:25:47;98001.55;;;17.91;26.40
74334;BME280;62753;40.394;-80.022;2022-10-04T01:28:03;97996.99;;;18.24;26.89
74334;BME280;62753;40.394;-80.022;2022-10-04T01:30:28;97993.45;;;17.47;25.90
74334;BME280;62753;40.394;-80.022;2022-10-04T01:32:53;97998.61;;;17.97;26.15
74334;BME280;62753;40.394;-80.022;2022-10-04T01:35:19;97997.23;;;18.30;25.57
74334;BME280;62753;40.394;-80.022;2022-10-04T01:37:44;97996.13;;;17.50;25.23
74334;BME280;62753;40.394;-80.022;2022-10-04T01:40:10;97994.64;;;18.03;24.61
74334;BME280;62753;40.394;-80.022;2022-10-04T01:42:40;97993.29;;;17.96;24.80
74334;BME280;62753;40.394;-80.022;2022-10-04T01:45:06;97993.53;;;17.76;25.40
74334;BME280;62753;40.394;-80.022;2022-10-04T01:47:28;97990.46;;;18.19;25.52
74334;BME280;62753;40.394;-80.022;2022-10-04T01:49:52;97988.09;;;17.37;25.95
74334;BME280;62753;40.394;-80.022;2022-10-04T01:52:20;97983.72;;;17.25;26.26
74334;BME280;62753;40.394;-80.022;2022-10-04T01:54:43;97986.60;;;17.22;26.18
74334;BME280;62753;40.394;-80.022;2022-10-04T01:57:12;97991.82;;;17.41;26.29
74334;BME280;62753;40.394;-80.022;2022-10-04T01:59:36;97991.61;;;18.05;25.87
74334;BME280;62753;40.394;-80.022;2022-10-04T02:02:02;97983.77;;;17.57;25.83
74334;BME280;62753;40.394;-80.022;2022-10-04T02:04:27;97982.52;;;17.51;25.85
74334;BME280;62753;40.394;-80.022;2022-10-04T02:06:50;97982.65;;;17.61;25.75
74334;BME280;62753;40.394;-80.022;2022-10-04T02:09:17;97981.58;;;17.36;26.24
74334;BME280;62753;40.394;-80.022;2022-10-04T02:11:40;97980.81;;;17.73;26.81
74334;BME280;62753;40.394;-80.022;2022-10-04T02:14:04;97979.72;;;17.63;26.99
74334;BME280;62753;40.394;-80.022;2022-10-04T02:16:30;97976.81;;;17.27;26.77
74334;BME280;62753;40.394;-80.022;2022-10-04T02:18:54;97977.97;;;17.62;26.64
74334;BME280;62753;40.394;-80.022;2022-10-04T02:21:21;97978.59;;;17.03;26.93
74334;BME280;62753;40.394;-80.022;2022-10-04T02:23:46;97978.90;;;16.53;27.20
74334;BME280;62753;40.394;-80.022;2022-10-04T02:26:11;97979.50;;;16.94;27.33
74334;BME280;62753;40.394;-80.022;2022-10-04T02:28:37;97980.84;;;17.21;27.04
74334;BME280;62753;40.394;-80.022;2022-10-04T02:31:01;97978.50;;;17.36;27.02
74334;BME280;62753;40.394;-80.022;2022-10-04T02:33:26;97975.73;;;17.60;26.91
74334;BME280;62753;40.394;-80.022;2022-10-04T02:35:52;97981.28;;;16.65;27.76
74334;BME280;62753;40.394;-80.022;2022-10-04T02:38:21;97981.60;;;17.01;28.29
74334;BME280;62753;40.394;-80.022;2022-10-04T02:40:46;97981.96;;;16.60;28.66
74334;BME280;62753;40.394;-80.022;2022-10-04T02:43:12;97981.96;;;16.38;29.30
74334;BME280;62753;40.394;-80.022;2022-10-04T02:45:40;97980.30;;;16.14;30.36
74334;BME280;62753;40.394;-80.022;2022-10-04T02:48:02;97980.90;;;15.58;30.09
74334;BME280;62753;40.394;-80.022;2022-10-04T02:50:28;97972.38;;;15.96;29.81
74334;BME280;62753;40.394;-80.022;2022-10-04T02:52:54;97974.06;;;15.85;30.42
74334;BME280;62753;40.394;-80.022;2022-10-04T02:55:19;97974.42;;;15.82;30.52
74334;BME280;62753;40.394;-80.022;2022-10-04T02:57:41;97975.99;;;16.29;30.11
74334;BME280;62753;40.394;-80.022;2022-10-04T03:00:16;97973.85;;;15.88;29.62
74334;BME280;62753;40.394;-80.022;2022-10-04T03:02:30;97969.69;;;16.67;29.58
74334;BME280;62753;40.394;-80.022;2022-10-04T03:04:59;97964.05;;;16.56;29.51
74334;BME280;62753;40.394;-80.022;2022-10-04T03:07:22;97965.60;;;16.06;29.97
74334;BME280;62753;40.394;-80.022;2022-10-04T03:09:47;97964.45;;;16.37;30.40
74334;BME280;62753;40.394;-80.022;2022-10-04T03:12:12;97957.49;;;14.98;31.91
74334;BME280;62753;40.394;-80.022;2022-10-04T03:14:37;97958.75;;;16.05;30.94
74334;BME280;62753;40.394;-80.022;2022-10-04T03:17:04;97961.75;;;15.54;30.79
74334;BME280;62753;40.394;-80.022;2022-10-04T03:19:29;97962.91;;;16.29;29.75
74334;BME280;62753;40.394;-80.022;2022-10-04T03:21:55;97960.70;;;16.44;29.81
74334;BME280;62753;40.394;-80.022;2022-10-04T03:24:21;97955.37;;;16.58;29.24
74334;BME280;62753;40.394;-80.022;2022-10-04T03:26:46;97955.99;;;16.93;29.23
74334;BME280;62753;40.394;-80.022;2022-10-04T03:29:12;97955.16;;;16.60;29.65
74334;BME280;62753;40.394;-80.022;2022-10-04T03:31:38;97959.47;;;15.89;30.22
74334;BME280;62753;40.394;-80.022;2022-10-04T03:34:00;97958.17;;;15.98;30.41
74334;BME280;62753;40.394;-80.022;2022-10-04T03:36:26;97956.77;;;15.95;30.51
74334;BME280;62753;40.394;-80.022;2022-10-04T03:38:53;97953.56;;;16.25;29.96
74334;BME280;62753;40.394;-80.022;2022-10-04T03:41:16;97956.27;;;16.07;29.77
74334;BME280;62753;40.394;-80.022;2022-10-04T03:43:44;97954.79;;;16.46;29.32
74334;BME280;62753;40.394;-80.022;2022-10-04T03:46:07;97951.01;;;15.91;30.20
74334;BME280;62753;40.394;-80.022;2022-10-04T03:48:35;97958.15;;;15.73;30.39
74334;BME280;62753;40.394;-80.022;2022-10-04T03:50:58;97952.77;;;16.38;30.26
74334;BME280;62753;40.394;-80.022;2022-10-04T03:53:28;97950.40;;;16.11;29.82
74334;BME280;62753;40.394;-80.022;2022-10-04T03:55:48;97947.19;;;16.40;29.65
74334;BME280;62753;40.394;-80.022;2022-10-04T03:58:15;97949.58;;;16.51;29.54
74334;BME280;62753;40.394;-80.022;2022-10-04T04:00:42;97957.32;;;15.74;30.68
74334;BME280;62753;40.394;-80.022;2022-10-04T04:03:06;97958.44;;;14.82;31.16
74334;BME280;62753;40.394;-80.022;2022-10-04T04:05:34;97954.89;;;15.33;31.19
74334;BME280;62753;40.394;-80.022;2022-10-04T04:08:02;97949.26;;;15.63;30.93
74334;BME280;62753;40.394;-80.022;2022-10-04T04:10:22;97948.88;;;14.70;32.32
74334;BME280;62753;40.394;-80.022;2022-10-04T04:12:50;97947.35;;;15.06;31.21
74334;BME280;62753;40.394;-80.022;2022-10-04T04:15:11;97949.76;;;14.99;31.38
74334;BME280;62753;40.394;-80.022;2022-10-04T04:17:38;97945.86;;;15.48;31.29
74334;BME280;62753;40.394;-80.022;2022-10-04T04:20:04;97949.93;;;14.81;32.63
74334;BME280;62753;40.394;-80.022;2022-10-04T04:22:27;97941.31;;;15.21;31.86
74334;BME280;62753;40.394;-80.022;2022-10-04T04:24:52;97942.99;;;14.73;33.55
74334;BME280;62753;40.394;-80.022;2022-10-04T04:27:19;97946.70;;;14.13;34.66
74334;BME280;62753;40.394;-80.022;2022-10-04T04:29:46;97939.78;;;13.90;35.02
74334;BME280;62753;40.394;-80.022;2022-10-04T04:32:14;97942.74;;;13.35;35.50
74334;BME280;62753;40.394;-80.022;2022-10-04T04:37:00;97946.20;;;13.66;35.20
74334;BME280;62753;40.394;-80.022;2022-10-04T04:39:26;97946.99;;;14.25;34.59
74334;BME280;62753;40.394;-80.022;2022-10-04T04:41:50;97946.60;;;13.04;35.21
74334;BME280;62753;40.394;-80.022;2022-10-04T04:44:17;97943.81;;;13.92;34.74
74334;BME280;62753;40.394;-80.022;2022-10-04T04:46:41;97942.25;;;14.30;34.22
74334;BME280;62753;40.394;-80.022;2022-10-04T04:49:06;97938.52;;;14.57;33.85
74334;BME280;62753;40.394;-80.022;2022-10-04T04:51:32;97923.79;;;14.54;32.91
74334;BME280;62753;40.394;-80.022;2022-10-04T04:53:58;97925.62;;;15.04;32.75
74334;BME280;62753;40.394;-80.022;2022-10-04T04:56:24;97929.57;;;15.06;32.75
74334;BME280;62753;40.394;-80.022;2022-10-04T04:58:48;97932.79;;;15.24;32.42
74334;BME280;62753;40.394;-80.022;2022-10-04T05:01:17;97929.45;;;15.31;32.19
74334;BME280;62753;40.394;-80.022;2022-10-04T05:03:38;97923.03;;;15.26;32.42
74334;BME280;62753;40.394;-80.022;2022-10-04T05:06:03;97924.12;;;15.40;31.89
74334;BME280;62753;40.394;-80.022;2022-10-04T05:08:30;97928.19;;;15.56;31.34
74334;BME280;62753;40.394;-80.022;2022-10-04T05:11:01;97930.88;;;15.50;31.00
74334;BME280;62753;40.394;-80.022;2022-10-04T05:13:19;97927.62;;;15.83;31.26
74334;BME280;62753;40.394;-80.022;2022-10-04T05:15:45;97929.03;;;15.63;31.24
74334;BME280;62753;40.394;-80.022;2022-10-04T05:18:22;97934.90;;;14.30;33.44
74334;BME280;62753;40.394;-80.022;2022-10-04T05:20:35;97932.93;;;14.26;33.83
74334;BME280;62753;40.394;-80.022;2022-10-04T05:23:00;97939.45;;;14.47;33.89
74334;BME280;62753;40.394;-80.022;2022-10-04T05:25:28;97948.01;;;13.84;34.88
74334;BME280;62753;40.394;-80.022;2022-10-04T05:27:52;97926.38;;;15.06;33.47
74334;BME280;62753;40.394;-80.022;2022-10-04T05:30:30;97916.34;;;15.08;32.48
74334;BME280;62753;40.394;-80.022;2022-10-04T05:32:49;97923.97;;;15.34;32.39
74334;BME280;62753;40.394;-80.022;2022-10-04T05:35:14;97926.49;;;15.61;31.88
74334;BME280;62753;40.394;-80.022;2022-10-04T05:37:43;97917.90;;;15.36;32.23
74334;BME280;62753;40.394;-80.022;2022-10-04T05:40:04;97921.61;;;15.07;31.96
74334;BME280;62753;40.394;-80.022;2022-10-04T05:42:28;97913.40;;;14.71;33.47
74334;BME280;62753;40.394;-80.022;2022-10-04T05:44:51;97913.15;;;14.87;32.69
74334;BME280;62753;40.394;-80.022;2022-10-04T05:47:15;97914.68;;;15.00;32.98
74334;BME280;62753;40.394;-80.022;2022-10-04T05:49:42;97918.88;;;13.96;34.29
74334;BME280;62753;40.394;-80.022;2022-10-04T05:52:12;97918.97;;;14.64;33.37
74334;BME280;62753;40.394;-80.022;2022-10-04T05:54:33;97925.85;;;14.80;33.02
74334;BME280;62753;40.394;-80.022;2022-10-04T05:57:14;97917.47;;;14.40;34.02
74334;BME280;62753;40.394;-80.022;2022-10-04T05:59:33;97923.15;;;14.58;34.09
74334;BME280;62753;40.394;-80.022;2022-10-04T06:01:54;97916.46;;;12.81;36.56
74334;BME280;62753;40.394;-80.022;2022-10-04T06:04:33;97912.59;;;13.84;36.46
74334;BME280;62753;40.394;-80.022;2022-10-04T06:06:40;97903.80;;;14.13;36.31
74334;BME280;62753;40.394;-80.022;2022-10-04T06:09:10;97909.71;;;13.80;36.09
74334;BME280;62753;40.394;-80.022;2022-10-04T06:11:35;97902.94;;;13.23;37.27
74334;BME280;62753;40.394;-80.022;2022-10-04T06:16:27;97896.64;;;13.29;36.07
74334;BME280;62753;40.394;-80.022;2022-10-04T06:23:40;97907.36;;;11.45;40.22
74334;BME280;62753;40.394;-80.022;2022-10-04T06:26:04;97906.04;;;12.85;38.77
74334;BME280;62753;40.394;-80.022;2022-10-04T06:28:29;97908.11;;;13.34;37.92
74334;BME280;62753;40.394;-80.022;2022-10-04T06:31:10;97908.24;;;13.34;37.39
74334;BME280;62753;40.394;-80.022;2022-10-04T06:33:28;97914.36;;;14.07;36.89
74334;BME280;62753;40.394;-80.022;2022-10-04T06:38:21;97908.40;;;14.09;35.79
74334;BME280;62753;40.394;-80.022;2022-10-04T06:40:46;97904.14;;;13.55;36.58
74334;BME280;62753;40.394;-80.022;2022-10-04T06:43:07;97894.96;;;13.11;37.81
74334;BME280;62753;40.394;-80.022;2022-10-04T06:45:34;97880.22;;;13.75;38.21
74334;BME280;62753;40.394;-80.022;2022-10-04T06:48:03;97890.23;;;12.84;37.84
74334;BME280;62753;40.394;-80.022;2022-10-04T06:50:22;97897.05;;;13.01;37.39
74334;BME280;62753;40.394;-80.022;2022-10-04T06:52:51;97894.66;;;13.90;36.78
74334;BME280;62753;40.394;-80.022;2022-10-04T06:55:18;97897.11;;;13.82;36.67
74334;BME280;62753;40.394;-80.022;2022-10-04T06:57:51;97885.48;;;13.78;35.88
74334;BME280;62753;40.394;-80.022;2022-10-04T07:02:25;97876.88;;;14.08;35.28
74334;BME280;62753;40.394;-80.022;2022-10-04T07:04:50;97878.17;;;13.28;35.86
74334;BME280;62753;40.394;-80.022;2022-10-04T07:07:16;97880.25;;;13.84;36.07
74334;BME280;62753;40.394;-80.022;2022-10-04T07:09:40;97882.34;;;13.28;37.16
74334;BME280;62753;40.394;-80.022;2022-10-04T07:12:05;97881.35;;;13.23;36.88
74334;BME280;62753;40.394;-80.022;2022-10-04T07:14:30;97878.99;;;12.99;37.24
74334;BME280;62753;40.394;-80.022;2022-10-04T07:16:56;97873.84;;;13.64;36.43
74334;BME280;62753;40.394;-80.022;2022-10-04T07:19:29;97867.69;;;13.00;37.28
74334;BME280;62753;40.394;-80.022;2022-10-04T07:21:51;97860.17;;;13.45;36.75
74334;BME280;62753;40.394;-80.022;2022-10-04T07:24:12;97857.30;;;12.39;38.28
74334;BME280;62753;40.394;-80.022;2022-10-04T07:26:42;97849.36;;;12.59;38.51
74334;BME280;62753;40.394;-80.022;2022-10-04T07:29:03;97847.90;;;12.84;38.48
74334;BME280;62753;40.394;-80.022;2022-10-04T07:31:28;97852.06;;;12.99;38.92
74334;BME280;62753;40.394;-80.022;2022-10-04T07:33:53;97849.98;;;12.24;40.21
74334;BME280;62753;40.394;-80.022;2022-10-04T07:36:21;97855.27;;;12.91;39.68
74334;BME280;62753;40.394;-80.022;2022-10-04T07:38:45;97852.58;;;12.44;39.98
74334;BME280;62753;40.394;-80.022;2022-10-04T07:41:11;97850.41;;;11.79;41.67
74334;BME280;62753;40.394;-80.022;2022-10-04T07:43:37;97836.81;;;12.33;40.29
74334;BME280;62753;40.394;-80.022;2022-10-04T07:46:03;97826.14;;;12.72;39.73
74334;BME280;62753;40.394;-80.022;2022-10-04T07:48:23;97822.35;;;12.78;39.05
74334;BME280;62753;40.394;-80.022;2022-10-04T07:50:55;97826.77;;;12.97;38.90
74334;BME280;62753;40.394;-80.022;2022-10-04T07:53:16;97829.75;;;12.84;38.67
74334;BME280;62753;40.394;-80.022;2022-10-04T07:55:48;97824.62;;;13.31;37.60
74334;BME280;62753;40.394;-80.022;2022-10-04T07:58:15;97827.11;;;13.27;36.97
74334;BME280;62753;40.394;-80.022;2022-10-04T08:00:36;97825.57;;;14.24;35.94
74334;BME280;62753;40.394;-80.022;2022-10-04T08:05:23;97844.54;;;13.63;36.57
74334;BME280;62753;40.394;-80.022;2022-10-04T08:07:59;97845.47;;;13.18;37.17
74334;BME280;62753;40.394;-80.022;2022-10-04T08:10:19;97848.15;;;13.72;37.30
74334;BME280;62753;40.394;-80.022;2022-10-04T08:12:45;97850.70;;;13.05;37.98
74334;BME280;62753;40.394;-80.022;2022-10-04T08:15:13;97840.08;;;13.00;37.66
74334;BME280;62753;40.394;-80.022;2022-10-04T08:17:39;97836.96;;;12.54;37.87
74334;BME280;62753;40.394;-80.022;2022-10-04T08:20:01;97837.04;;;12.58;38.04
74334;BME280;62753;40.394;-80.022;2022-10-04T08:22:29;97840.98;;;13.13;37.85
74334;BME280;62753;40.394;-80.022;2022-10-04T08:24:54;97853.43;;;13.03;37.57
74334;BME280;62753;40.394;-80.022;2022-10-04T08:27:25;97852.16;;;12.74;37.88
74334;BME280;62753;40.394;-80.022;2022-10-04T08:29:48;97835.55;;;13.88;37.27
74334;BME280;62753;40.394;-80.022;2022-10-04T08:32:05;97832.14;;;12.64;37.91
74334;BME280;62753;40.394;-80.022;2022-10-04T08:34:37;97832.99;;;12.93;37.96
74334;BME280;62753;40.394;-80.022;2022-10-04T08:37:00;97839.27;;;12.45;38.50
74334;BME280;62753;40.394;-80.022;2022-10-04T08:39:27;97834.55;;;12.83;38.41
74334;BME280;62753;40.394;-80.022;2022-10-04T08:51:38;97831.74;;;11.64;40.99
74334;BME280;62753;40.394;-80.022;2022-10-04T08:56:22;97823.55;;;11.71;41.73
74334;BME280;62753;40.394;-80.022;2022-10-04T08:58:49;97827.28;;;11.97;40.69
74334;BME280;62753;40.394;-80.022;2022-10-04T09:01:18;97828.49;;;11.84;40.29
74334;BME280;62753;40.394;-80.022;2022-10-04T09:05:59;97814.90;;;12.27;40.01
74334;BME280;62753;40.394;-80.022;2022-10-04T09:10:58;97826.32;;;11.93;40.27
74334;BME280;62753;40.394;-80.022;2022-10-04T09:13:23;97830.37;;;12.58;39.59
74334;BME280;62753;40.394;-80.022;2022-10-04T09:18:18;97815.29;;;12.16;39.69
74334;BME280;62753;40.394;-80.022;2022-10-04T09:22:57;97812.42;;;13.00;37.92
74334;BME280;62753;40.394;-80.022;2022-10-04T09:25:26;97813.36;;;12.56;38.12
74334;BME280;62753;40.394;-80.022;2022-10-04T09:28:01;97803.95;;;12.66;38.63
74334;BME280;62753;40.394;-80.022;2022-10-04T09:30:15;97801.71;;;12.72;38.84
74334;BME280;62753;40.394;-80.022;2022-10-04T09:35:20;97805.42;;;12.39;37.97
74334;BME280;62753;40.394;-80.022;2022-10-04T09:37:37;97811.94;;;13.06;37.99
74334;BME280;62753;40.394;-80.022;2022-10-04T09:42:29;97821.29;;;13.09;38.33
74334;BME280;62753;40.394;-80.022;2022-10-04T09:44:52;97821.73;;;12.99;38.38
74334;BME280;62753;40.394;-80.022;2022-10-04T09:47:25;97816.78;;;12.58;38.60
74334;BME280;62753;40.394;-80.022;2022-10-04T09:49:50;97826.91;;;12.45;38.10
74334;BME280;62753;40.394;-80.022;2022-10-04T09:52:13;97825.01;;;13.34;37.48
74334;BME280;62753;40.394;-80.022;2022-10-04T09:57:01;97797.02;;;12.61;37.53
74334;BME280;62753;40.394;-80.022;2022-10-04T09:59:32;97809.02;;;12.42;38.46
74334;BME280;62753;40.394;-80.022;2022-10-04T10:01:51;97811.10;;;11.98;39.98
74334;BME280;62753;40.394;-80.022;2022-10-04T10:04:20;97811.31;;;11.89;39.80
74334;BME280;62753;40.394;-80.022;2022-10-04T10:06:46;97818.04;;;10.58;42.61
74334;BME280;62753;40.394;-80.022;2022-10-04T10:09:07;97819.16;;;11.32;41.95
74334;BME280;62753;40.394;-80.022;2022-10-04T10:11:28;97816.86;;;10.89;43.07
74334;BME280;62753;40.394;-80.022;2022-10-04T10:13:59;97794.66;;;10.98;42.52
74334;BME280;62753;40.394;-80.022;2022-10-04T10:16:29;97809.65;;;11.85;41.16
74334;BME280;62753;40.394;-80.022;2022-10-04T10:18:48;97808.41;;;12.26;40.24
74334;BME280;62753;40.394;-80.022;2022-10-04T10:21:20;97799.86;;;12.35;38.92
74334;BME280;62753;40.394;-80.022;2022-10-04T10:23:50;97824.69;;;12.80;38.35
74334;BME280;62753;40.394;-80.022;2022-10-04T10:26:07;97842.52;;;10.59;41.75
74334;BME280;62753;40.394;-80.022;2022-10-04T10:28:34;97838.40;;;12.27;39.08
74334;BME280;62753;40.394;-80.022;2022-10-04T10:31:01;97844.01;;;11.65;40.53
74334;BME280;62753;40.394;-80.022;2022-10-04T10:33:25;97851.78;;;8.97;46.67
74334;BME280;62753;40.394;-80.022;2022-10-04T10:35:50;97826.24;;;11.37;42.15
74334;BME280;62753;40.394;-80.022;2022-10-04T10:38:20;97814.04;;;12.45;39.52
74334;BME280;62753;40.394;-80.022;2022-10-04T10:40:38;97814.56;;;11.45;41.99
74334;BME280;62753;40.394;-80.022;2022-10-04T10:43:03;97808.00;;;12.61;38.84
74334;BME280;62753;40.394;-80.022;2022-10-04T10:45:31;97793.68;;;12.24;38.91
74334;BME280;62753;40.394;-80.022;2022-10-04T10:47:51;97788.59;;;11.25;40.50
74334;BME280;62753;40.394;-80.022;2022-10-04T10:50:26;97792.55;;;12.48;40.08
74334;BME280;62753;40.394;-80.022;2022-10-04T10:55:11;97813.15;;;9.40;44.51
74334;BME280;62753;40.394;-80.022;2022-10-04T11:00:08;97812.97;;;7.45;51.03
74334;BME280;62753;40.394;-80.022;2022-10-04T11:04:51;97802.43;;;8.96;49.40
74334;BME280;62753;40.394;-80.022;2022-10-04T11:14:29;97804.02;;;11.33;41.41
74334;BME280;62753;40.394;-80.022;2022-10-04T11:21:55;97816.97;;;12.16;39.98
74334;BME280;62753;40.394;-80.022;2022-10-04T11:24:13;97817.60;;;11.69;41.46
74334;BME280;62753;40.394;-80.022;2022-10-04T11:26:42;97814.06;;;11.77;41.05
74334;BME280;62753;40.394;-80.022;2022-10-04T11:29:01;97811.97;;;11.65;40.82
74334;BME280;62753;40.394;-80.022;2022-10-04T11:31:38;97820.82;;;12.55;39.23
74334;BME280;62753;40.394;-80.022;2022-10-04T11:33:59;97816.35;;;13.22;37.88
74334;BME280;62753;40.394;-80.022;2022-10-04T11:36:26;97817.92;;;13.33;37.19
74334;BME280;62753;40.394;-80.022;2022-10-04T11:38:51;97816.62;;;12.77;37.61
74334;BME280;62753;40.394;-80.022;2022-10-04T11:41:13;97825.38;;;12.67;36.60
74334;BME280;62753;40.394;-80.022;2022-10-04T11:43:45;97822.54;;;13.74;35.84
74334;BME280;62753;40.394;-80.022;2022-10-04T11:48:27;97819.41;;;13.34;36.51
74334;BME280;62753;40.394;-80.022;2022-10-04T11:51:01;97822.28;;;13.16;35.69
74334;BME280;62753;40.394;-80.022;2022-10-04T11:55:48;97823.46;;;13.42;36.11
74334;BME280;62753;40.394;-80.022;2022-10-04T11:58:06;97829.37;;;13.23;35.98
74334;BME280;62753;40.394;-80.022;2022-10-04T12:05:32;97831.51;;;12.47;36.47
74334;BME280;62753;40.394;-80.022;2022-10-04T12:07:50;97827.89;;;13.17;36.25
74334;BME280;62753;40.394;-80.022;2022-10-04T12:10:21;97833.84;;;13.20;36.45
74334;BME280;62753;40.394;-80.022;2022-10-04T12:12:46;97840.14;;;12.67;36.60
74334;BME280;62753;40.394;-80.022;2022-10-04T12:15:08;97837.73;;;12.74;36.94
74334;BME280;62753;40.394;-80.022;2022-10-04T12:17:39;97832.21;;;12.40;37.36
74334;BME280;62753;40.394;-80.022;2022-10-04T12:20:00;97837.95;;;13.24;36.87
74334;BME280;62753;40.394;-80.022;2022-10-04T12:22:28;97835.46;;;13.33;36.55
74334;BME280;62753;40.394;-80.022;2022-10-04T12:24:49;97825.89;;;13.48;36.15
74334;BME280;62753;40.394;-80.022;2022-10-04T12:27:17;97820.02;;;13.61;35.93
74334;BME280;62753;40.394;-80.022;2022-10-04T12:31:57;97821.15;;;13.69;35.77
74334;BME280;62753;40.394;-80.022;2022-10-04T12:34:28;97816.98;;;14.03;35.60
74334;BME280;62753;40.394;-80.022;2022-10-04T12:37:10;97819.55;;;14.00;34.72
74334;BME280;62753;40.394;-80.022;2022-10-04T12:39:28;97818.99;;;13.51;34.94
74334;BME280;62753;40.394;-80.022;2022-10-04T12:41:45;97821.15;;;14.41;34.75
74334;BME280;62753;40.394;-80.022;2022-10-04T12:44:15;97823.27;;;12.94;36.40
74334;BME280;62753;40.394;-80.022;2022-10-04T12:46:34;97826.06;;;11.96;38.32
74334;BME280;62753;40.394;-80.022;2022-10-04T12:49:02;97838.17;;;12.85;37.12
74334;BME280;62753;40.394;-80.022;2022-10-04T12:51:30;97832.29;;;12.19;37.58
74334;BME280;62753;40.394;-80.022;2022-10-04T12:53:49;97831.89;;;12.87;37.25
74334;BME280;62753;40.394;-80.022;2022-10-04T12:56:16;97830.08;;;12.50;37.54
74334;BME280;62753;40.394;-80.022;2022-10-04T12:58:44;97827.38;;;12.61;37.49
74334;BME280;62753;40.394;-80.022;2022-10-04T13:01:08;97828.58;;;13.58;36.79
74334;BME280;62753;40.394;-80.022;2022-10-04T13:03:33;97831.78;;;13.20;36.42
74334;BME280;62753;40.394;-80.022;2022-10-04T13:05:57;97831.84;;;12.38;38.13
74334;BME280;62753;40.394;-80.022;2022-10-04T13:08:23;97834.86;;;12.88;37.66
74334;BME280;62753;40.394;-80.022;2022-10-04T13:10:53;97837.53;;;13.25;37.17
74334;BME280;62753;40.394;-80.022;2022-10-04T13:13:22;97837.08;;;13.43;36.54
74334;BME280;62753;40.394;-80.022;2022-10-04T13:15:34;97844.20;;;13.06;36.62
74334;BME280;62753;40.394;-80.022;2022-10-04T13:18:03;97851.25;;;13.46;36.23
74334;BME280;62753;40.394;-80.022;2022-10-04T13:20:39;97853.68;;;12.96;36.26
74334;BME280;62753;40.394;-80.022;2022-10-04T13:22:54;97852.46;;;13.31;36.93
74334;BME280;62753;40.394;-80.022;2022-10-04T13:25:23;97850.59;;;13.04;37.91
74334;BME280;62753;40.394;-80.022;2022-10-04T13:27:45;97847.48;;;12.96;38.84
74334;BME280;62753;40.394;-80.022;2022-10-04T13:30:13;97845.52;;;13.07;38.30
74334;BME280;62753;40.394;-80.022;2022-10-04T13:32:35;97844.09;;;12.57;38.90
74334;BME280;62753;40.394;-80.022;2022-10-04T13:35:01;97842.03;;;12.79;37.95
74334;BME280;62753;40.394;-80.022;2022-10-04T13:37:29;97842.92;;;13.00;37.81
74334;BME280;62753;40.394;-80.022;2022-10-04T13:39:54;97846.55;;;12.64;36.99
74334;BME280;62753;40.394;-80.022;2022-10-04T13:42:26;97847.14;;;12.61;36.89
74334;BME280;62753;40.394;-80.022;2022-10-04T13:44:47;97849.56;;;13.57;36.74
74334;BME280;62753;40.394;-80.022;2022-10-04T13:47:15;97856.01;;;13.00;36.69
74334;BME280;62753;40.394;-80.022;2022-10-04T13:49:36;97848.59;;;14.12;35.59
74334;BME280;62753;40.394;-80.022;2022-10-04T13:52:01;97850.58;;;13.62;35.54
74334;BME280;62753;40.394;-80.022;2022-10-04T13:54:27;97850.67;;;13.51;35.36
74334;BME280;62753;40.394;-80.022;2022-10-04T13:56:55;97850.73;;;14.38;34.42